Time;durP1;ratioP1;P1;durP2;ratioP2;P2;SDS_P1;SDS_P2;PMS_P1;PMS_P2;Temp;Humidity;BMP_temperature;BMP_pressure;BME280_temperature;BME280_humidity;BME280_pressure;Samples;Min_cycle;Max_cycle;Signal;HPM_P1;HPM_P2
2024/01/12 00:02:32;;;;;;;2.95;2.28;;;;;;;7.48;67.57;101106.28;10370324;28;96661;-79
2024/01/12 00:07:35;;;;;;;3.15;2.22;;;;;;;7.46;67.54;101121.19;10370135;28;97418;-79
2024/01/12 00:12:39;;;;;;;4.45;2.30;;;;;;;7.45;67.32;101098.50;10370147;28;97145;-79
2024/01/12 00:17:44;;;;;;;4.47;2.30;;;;;;;7.49;66.84;101087.09;10369599;28;96743;-79
2024/01/12 00:22:47;;;;;;;4.20;2.55;;;;;;;7.50;66.81;101096.66;10370354;28;96709;-79
2024/01/12 00:27:51;;;;;;;3.40;2.17;;;;;;;7.42;66.79;101101.16;10369624;28;97100;-79
2024/01/12 00:32:56;;;;;;;3.20;1.80;;;;;;;7.40;67.26;101109.03;10370552;28;96812;-79
2024/01/12 00:37:59;;;;;;;;;;;;;;;7.44;67.11;101097.63;10369877;28;97007;-79
2024/01/12 00:43:03;;;;;;;3.90;2.00;;;;;;;7.40;67.25;101095.06;10369982;28;96983;-79
2024/01/12 00:48:08;;;;;;;4.60;2.42;;;;;;;7.37;66.96;101105.59;10372446;28;96890;-79
2024/01/12 00:53:12;;;;;;;2.78;2.08;;;;;;;7.34;66.63;101106.47;10376437;28;96653;-79
2024/01/12 00:58:15;;;;;;;3.47;1.85;;;;;;;7.34;67.25;101089.91;10376249;28;97230;-79
2024/01/12 01:03:21;;;;;;;3.42;2.03;;;;;;;7.32;67.04;101084.69;10375969;28;97183;-79
2024/01/12 01:08:24;;;;;;;;;;;;;;;7.29;67.20;101086.47;10375638;28;96926;-79
2024/01/12 01:13:27;;;;;;;5.05;2.10;;;;;;;7.32;66.99;101078.59;10375896;28;96972;-79
2024/01/12 01:18:33;;;;;;;2.25;1.38;;;;;;;7.26;66.92;101082.16;10374788;28;96913;-79
2024/01/12 01:23:39;;;;;;;2.33;1.60;;;;;;;7.24;67.23;101083.06;10376139;28;97140;-79
2024/01/12 01:28:43;;;;;;;2.72;1.50;;;;;;;7.26;67.37;101082.16;10375227;28;96674;-79
2024/01/12 01:33:48;;;;;;;2.50;1.40;;;;;;;7.24;67.33;101080.44;10375000;28;96819;-79
2024/01/12 01:38:52;;;;;;;4.38;2.35;;;;;;;7.23;67.31;101081.34;10374188;28;96981;-79
2024/01/12 01:43:55;;;;;;;2.75;1.80;;;;;;;7.19;67.02;101083.13;10375337;28;97234;-79
2024/01/12 01:49:00;;;;;;;3.67;1.50;;;;;;;7.25;66.04;101069.94;10374342;28;96743;-79
2024/01/12 01:54:04;;;;;;;3.33;1.58;;;;;;;7.23;66.56;101086.56;10374786;28;96564;-79
2024/01/12 01:59:08;;;;;;;2.63;1.73;;;;;;;7.21;66.71;101089.22;10374155;28;96737;-79
2024/01/12 02:04:13;;;;;;;2.42;1.58;;;;;;;7.23;66.53;101091.81;10374503;28;96682;-79
2024/01/12 02:09:17;;;;;;;3.67;1.85;;;;;;;7.18;66.60;101104.09;10373754;28;97265;-79
2024/01/12 02:14:22;;;;;;;2.80;1.38;;;;;;;7.14;66.72;101112.84;10341507;28;97041;-79
2024/01/12 02:19:26;;;;;;;2.15;1.25;;;;;;;7.15;66.63;101109.34;10373560;28;97275;-79
2024/01/12 02:24:31;;;;;;;2.60;1.77;;;;;;;7.13;66.70;101116.38;10373439;28;96790;-79
2024/01/12 02:29:35;;;;;;;3.10;1.20;;;;;;;7.11;66.64;101113.78;10372433;28;96701;-79
2024/01/12 02:34:39;;;;;;;2.38;1.40;;;;;;;7.13;66.57;101114.59;10373042;28;97213;-79
2024/01/12 02:39:43;;;;;;;2.83;1.42;;;;;;;7.14;66.70;101118.09;10373174;28;97194;-79
2024/01/12 02:44:47;;;;;;;;;;;;;;;7.11;66.78;101131.22;10372994;28;96696;-80
2024/01/12 02:49:51;;;;;;;2.33;1.45;;;;;;;7.12;66.55;101136.44;10372788;28;97134;-79
2024/01/12 02:54:56;;;;;;;3.10;1.40;;;;;;;7.09;66.77;101126.00;10372676;28;97835;-79
2024/01/12 03:00:00;;;;;;;2.28;1.63;;;;;;;7.07;66.72;101130.38;10373196;28;97760;-79
2024/01/12 03:05:09;;;;;;;2.05;1.42;;;;;;;7.08;66.53;101129.50;10372853;28;96558;-79
2024/01/12 03:10:16;;;;;;;1.58;1.23;;;;;;;7.10;66.82;101132.97;10371098;28;96738;-79
2024/01/12 03:15:20;;;;;;;1.92;1.27;;;;;;;7.02;67.07;101118.22;10372248;28;97081;-79
2024/01/12 03:20:24;;;;;;;3.80;1.70;;;;;;;7.04;66.90;101114.72;10370692;28;96656;-79
2024/01/12 03:25:29;;;;;;;2.40;1.45;;;;;;;6.97;66.95;101113.06;10371600;28;97270;-79
2024/01/12 03:30:32;;;;;;;2.92;1.42;;;;;;;6.99;66.82;101090.34;10371548;28;97408;-79
2024/01/12 03:35:36;;;;;;;2.28;1.25;;;;;;;6.97;67.11;101088.66;10371360;28;96627;-79
2024/01/12 03:40:41;;;;;;;2.42;1.40;;;;;;;6.97;66.96;101094.75;10371238;28;96492;-79
2024/01/12 03:45:45;;;;;;;2.50;1.63;;;;;;;6.97;66.98;101099.09;10371061;28;96638;-79
2024/01/12 03:50:49;;;;;;;2.08;1.52;;;;;;;7.00;66.61;101086.84;10371216;28;96608;-79
2024/01/12 03:55:54;;;;;;;2.05;1.25;;;;;;;6.96;67.17;101097.38;10371443;28;97203;-79
2024/01/12 04:00:57;;;;;;;2.65;1.45;;;;;;;6.92;66.99;101086.09;10370677;28;97902;-79
2024/01/12 04:06:01;;;;;;;3.83;1.38;;;;;;;6.90;67.38;101102.69;10370574;28;96977;-80
2024/01/12 04:11:06;;;;;;;1.67;1.23;;;;;;;6.88;67.14;101099.22;10369499;28;96629;-79
2024/01/12 04:16:10;;;;;;;1.63;1.40;;;;;;;6.89;67.20;101091.34;10370058;28;96687;-79
2024/01/12 04:21:14;;;;;;;1.90;1.20;;;;;;;6.88;66.93;101087.00;10373695;28;96778;-79
2024/01/12 04:26:19;;;;;;;1.63;1.20;;;;;;;6.86;66.90;101085.28;10378087;28;97583;-80
2024/01/12 04:31:24;;;;;;;2.30;1.15;;;;;;;6.82;66.76;101069.63;10377078;28;96744;-79
2024/01/12 04:36:27;;;;;;;2.03;1.20;;;;;;;6.79;67.47;101069.63;10377290;28;97110;-79
2024/01/12 04:41:32;;;;;;;1.95;1.20;;;;;;;6.80;67.12;101068.72;10376609;28;96715;-79
2024/01/12 04:46:36;;;;;;;2.03;1.30;;;;;;;6.77;67.42;101058.31;10376740;28;96569;-79
2024/01/12 04:51:40;;;;;;;2.80;1.52;;;;;;;6.72;67.32;101054.88;10376296;28;96562;-79
2024/01/12 04:56:44;;;;;;;2.97;1.25;;;;;;;6.73;67.50;101058.38;10376563;28;96783;-79
2024/01/12 05:01:48;;;;;;;2.03;1.27;;;;;;;6.74;67.42;101063.59;10375262;28;97239;-79
2024/01/12 05:06:51;;;;;;;2.60;1.50;;;;;;;6.79;66.75;101080.09;10375693;28;97169;-79
2024/01/12 05:11:59;;;;;;;1.73;1.30;;;;;;;6.76;66.98;101089.72;10375787;28;96919;-79
2024/01/12 05:17:03;;;;;;;1.60;1.20;;;;;;;6.74;66.78;101078.41;10375249;28;96925;-79
2024/01/12 05:22:07;;;;;;;2.67;1.50;;;;;;;6.71;67.26;101073.22;10375132;28;97543;-79
2024/01/12 05:27:12;;;;;;;2.30;1.25;;;;;;;6.74;66.62;101074.06;10375220;28;96637;-79
2024/01/12 05:32:16;;;;;;;2.90;2.03;;;;;;;6.69;66.75;101064.53;10374556;28;96683;-79
2024/01/12 05:37:19;;;;;;;2.72;1.50;;;;;;;6.69;66.94;101074.97;10376263;28;96948;-79
2024/01/12 05:42:24;;;;;;;2.33;1.40;;;;;;;6.68;67.08;101075.84;10333837;28;96701;-79
2024/01/12 05:47:28;;;;;;;;;;;;;;;6.64;66.39;101085.47;10361226;28;96830;-79
2024/01/12 05:52:33;;;;;;;1.60;1.05;;;;;;;6.67;66.92;101093.31;10373491;28;97311;-79
2024/01/12 05:57:38;;;;;;;2.05;1.50;;;;;;;6.68;65.98;101112.44;10374131;28;96870;-80
2024/01/12 06:02:42;;;;;;;1.83;1.05;;;;;;;6.66;66.11;101124.72;10374050;28;97182;-79
2024/01/12 06:07:45;;;;;;;1.88;1.10;;;;;;;6.77;65.44;101117.59;10373364;28;96746;-79
2024/01/12 06:12:50;;;;;;;3.47;1.38;;;;;;;6.71;65.51;101108.06;10374464;28;97626;-79
2024/01/12 06:17:54;;;;;;;1.92;1.17;;;;;;;6.66;65.81;101107.25;10373058;28;97815;-79
2024/01/12 06:22:58;;;;;;;2.05;1.48;;;;;;;6.60;66.28;101124.75;10373877;28;96884;-79
2024/01/12 06:28:03;;;;;;;1.67;1.10;;;;;;;6.58;66.05;101130.00;10374037;28;97541;-79
2024/01/12 06:33:08;;;;;;;1.75;1.13;;;;;;;6.60;66.38;101096.88;10373302;28;96628;-79
2024/01/12 06:38:12;;;;;;;1.67;1.13;;;;;;;6.62;65.67;101102.06;10373327;28;97450;-79
2024/01/12 06:43:17;;;;;;;0.95;0.80;;;;;;;6.55;65.92;101103.00;10371768;28;96817;-79
2024/01/12 06:48:21;;;;;;;2.85;1.40;;;;;;;6.59;65.65;101120.41;10397678;22;99133;-79
2024/01/12 06:53:25;;;;;;;2.10;1.20;;;;;;;6.60;65.03;101112.56;10391480;28;96678;-79
2024/01/12 06:58:30;;;;;;;5.15;1.35;;;;;;;6.57;65.55;101119.56;10372785;28;96600;-79
2024/01/12 07:03:33;;;;;;;1.98;1.10;;;;;;;6.53;65.32;101107.38;10378355;28;96655;-79
2024/01/12 07:08:37;;;;;;;2.38;1.33;;;;;;;6.52;65.64;101137.03;10413615;28;97398;-79
2024/01/12 07:13:42;;;;;;;1.75;1.20;;;;;;;6.59;64.80;101096.88;10413549;28;96805;-79
2024/01/12 07:18:46;;;;;;;1.45;1.15;;;;;;;6.53;65.08;101100.41;10414272;28;97192;-79
2024/01/12 07:23:50;;;;;;;1.92;1.02;;;;;;;6.56;64.95;101100.38;10375860;28;97049;-79
2024/01/12 07:28:55;;;;;;;2.10;1.08;;;;;;;6.54;64.22;101102.13;10371614;28;96975;-79
2024/01/12 07:33:58;;;;;;;1.73;0.90;;;;;;;6.56;64.41;101087.31;10370404;28;97466;-79
2024/01/12 07:39:02;;;;;;;3.20;1.10;;;;;;;6.60;64.34;101090.75;10370200;28;97431;-80
2024/01/12 07:44:08;;;;;;;2.22;1.23;;;;;;;6.59;64.64;101102.94;10370921;28;97596;-79
2024/01/12 07:49:12;;;;;;;2.65;1.48;;;;;;;6.61;64.03;101119.50;10370378;28;96699;-79
2024/01/12 07:54:15;;;;;;;2.38;1.20;;;;;;;6.68;63.72;101138.59;10370425;28;97117;-79
2024/01/12 07:59:20;;;;;;;1.65;1.25;;;;;;;6.70;63.20;101156.03;10370518;28;97276;-79
2024/01/12 08:04:24;;;;;;;1.98;0.90;;;;;;;6.75;63.45;101171.66;10370656;28;97319;-79
2024/01/12 08:09:27;;;;;;;1.70;1.15;;;;;;;6.69;63.21;101170.00;10371470;28;97356;-79
2024/01/12 08:14:32;;;;;;;2.05;1.05;;;;;;;6.68;63.75;101167.38;10369781;28;97878;-79
2024/01/12 08:19:36;;;;;;;1.60;0.95;;;;;;;6.72;63.65;101166.47;10370259;28;97046;-79
2024/01/12 08:24:40;;;;;;;2.45;1.33;;;;;;;6.80;63.02;101162.06;10369167;28;96720;-79
2024/01/12 08:29:45;;;;;;;1.88;1.30;;;;;;;6.77;63.03;101139.41;10369844;28;96620;-79
2024/01/12 08:34:48;;;;;;;2.35;1.23;;;;;;;6.80;62.90;101122.81;10370087;28;97365;-79
2024/01/12 08:39:52;;;;;;;2.20;1.17;;;;;;;6.85;62.55;101135.88;10369740;28;97214;-79
2024/01/12 08:44:57;;;;;;;2.88;1.33;;;;;;;6.82;62.64;101132.41;10368965;28;96791;-79
2024/01/12 08:50:01;;;;;;;3.08;1.45;;;;;;;6.87;62.79;101132.34;10369700;28;96662;-79
2024/01/12 08:55:08;;;;;;;2.90;1.60;;;;;;;6.89;62.74;101116.66;10369732;28;96884;-79
2024/01/12 09:00:16;;;;;;;2.78;1.52;;;;;;;6.94;61.99;101128.78;10369899;28;96612;-79
2024/01/12 09:05:21;;;;;;;2.92;1.48;;;;;;;6.97;62.08;101141.84;10368336;28;97072;-80
2024/01/12 09:10:26;;;;;;;2.45;1.60;;;;;;;7.01;61.66;101161.00;10374766;28;96927;-79
2024/01/12 09:15:31;;;;;;;3.63;1.80;;;;;;;7.01;61.59;101143.53;10374327;28;96871;-79
2024/01/12 09:20:35;;;;;;;2.20;1.33;;;;;;;7.05;61.98;101147.84;10375613;28;96726;-79
2024/01/12 09:25:39;;;;;;;3.25;1.95;;;;;;;7.13;61.81;101155.63;10375626;28;97393;-80
2024/01/12 09:30:46;;;;;;;2.78;1.63;;;;;;;7.17;62.03;101171.25;10375193;28;96832;-79
2024/01/12 09:35:49;;;;;;;2.13;1.70;;;;;;;7.17;62.26;101186.97;10375044;28;96724;-79
2024/01/12 09:40:53;;;;;;;3.85;1.90;;;;;;;7.21;61.80;101183.44;10375195;28;96612;-79
2024/01/12 09:46:01;;;;;;;3.58;1.90;;;;;;;7.29;61.57;101176.34;10374005;28;96792;-79
2024/01/12 09:51:06;;;;;;;3.75;2.30;;;;;;;7.37;61.21;101179.75;10375803;28;96652;-79
2024/01/12 09:56:10;;;;;;;3.42;2.22;;;;;;;7.41;61.67;101191.03;10374243;28;96622;-79
2024/01/12 10:01:17;;;;;;;4.70;2.42;;;;;;;7.41;60.56;101183.19;10374906;28;97075;-79
2024/01/12 10:06:21;;;;;;;5.15;2.65;;;;;;;7.59;61.18;101182.97;10372962;28;96657;-79
2024/01/12 10:11:25;;;;;;;3.38;2.10;;;;;;;7.52;60.29;101202.28;10374015;28;96601;-80
2024/01/12 10:16:30;;;;;;;5.17;2.47;;;;;;;7.65;60.94;101202.09;10373855;28;97263;-79
2024/01/12 10:21:39;;;;;;;8.65;4.20;;;;;;;7.73;60.41;101204.63;10373791;28;96550;-79
2024/01/12 10:26:42;;;;;;;3.33;2.17;;;;;;;7.78;60.11;101218.53;10373450;28;96636;-79
2024/01/12 10:31:48;;;;;;;3.38;2.00;;;;;;;7.69;60.66;101195.06;10373395;28;96692;-79
2024/01/12 10:36:59;;;;;;;4.03;2.40;;;;;;;7.72;60.44;101185.41;10372717;28;96658;-80
2024/01/12 10:42:07;;;;;;;5.15;3.08;;;;;;;7.73;60.60;101178.44;10373388;28;96708;-79
2024/01/12 10:47:17;;;;;;;5.68;2.95;;;;;;;7.77;59.90;101188.84;10372459;28;96931;-79
2024/01/12 10:52:29;;;;;;;6.40;3.40;;;;;;;7.98;60.07;101206.00;10373167;28;96825;-79
2024/01/12 10:57:33;;;;;;;6.10;2.70;;;;;;;8.12;59.82;101201.44;10371068;28;96975;-80
2024/01/12 11:02:39;;;;;;;5.10;2.70;;;;;;;8.33;59.37;101181.91;10372237;28;97169;-79
2024/01/12 11:07:44;;;;;;;4.40;2.70;;;;;;;8.46;59.50;101178.22;10372367;28;97074;-79
2024/01/12 11:12:50;;;;;;;5.85;2.92;;;;;;;8.61;58.88;101157.84;10373140;28;97878;-80
2024/01/12 11:17:59;;;;;;;6.53;2.85;;;;;;;8.59;58.23;101141.25;10371770;28;97222;-79
2024/01/12 11:23:02;;;;;;;;;;;;;;;8.60;58.55;101127.22;10372521;28;96556;-79
2024/01/12 11:28:09;;;;;;;5.03;2.42;;;;;;;8.64;58.52;101102.69;10371686;28;96765;-80
2024/01/12 11:33:18;;;;;;;4.97;3.15;;;;;;;8.48;58.59;101118.72;10371497;28;97158;-79
2024/01/12 11:38:21;;;;;;;6.85;3.25;;;;;;;8.53;58.47;101111.63;10371019;28;96556;-79
2024/01/12 11:43:26;;;;;;;5.22;3.30;;;;;;;8.59;59.01;101116.75;10371212;28;96629;-79
2024/01/12 11:48:32;;;;;;;6.43;3.00;;;;;;;8.65;58.37;101077.31;10369386;28;96917;-79
2024/01/12 11:53:37;;;;;;;5.10;2.85;;;;;;;8.90;58.15;101095.19;10370898;28;96809;-79
2024/01/12 11:58:41;;;;;;;5.88;3.00;;;;;;;8.87;58.37;101076.88;10370890;28;96777;-79
2024/01/12 12:03:49;;;;;;;5.85;2.90;;;;;;;8.69;58.22;101092.97;10370844;28;96639;-79
2024/01/12 12:08:55;;;;;;;4.72;2.65;;;;;;;8.61;58.42;101091.38;10370495;28;96934;-79
2024/01/12 12:13:59;;;;;;;4.40;2.55;;;;;;;8.57;59.00;101072.19;10370169;28;97170;-79
2024/01/12 12:19:04;;;;;;;6.18;2.75;;;;;;;8.70;59.03;101085.97;10370239;28;96728;-79
2024/01/12 12:24:08;;;;;;;5.53;2.85;;;;;;;9.03;57.48;101064.31;10370359;28;96710;-79
2024/01/12 12:29:12;;;;;;;5.30;2.85;;;;;;;9.18;58.48;101060.47;10369985;28;97411;-79
2024/01/12 12:34:18;;;;;;;5.50;3.03;;;;;;;9.21;57.19;101040.28;10369859;28;96814;-80
2024/01/12 12:39:22;;;;;;;4.40;3.05;;;;;;;9.51;57.65;101023.00;10368671;28;96603;-80
2024/01/12 12:44:26;;;;;;;5.40;3.20;;;;;;;9.52;56.88;101030.84;10376026;28;96571;-80
2024/01/12 12:49:36;;;;;;;4.65;2.92;;;;;;;9.52;57.54;101009.84;10376650;28;97131;-79
2024/01/12 12:54:40;;;;;;;5.53;3.00;;;;;;;9.50;57.77;100993.25;10376646;28;96647;-79
2024/01/12 12:59:44;;;;;;;4.70;2.80;;;;;;;9.54;57.12;100976.50;10376211;28;97118;-80
2024/01/12 13:04:49;;;;;;;4.00;2.30;;;;;;;9.54;57.69;100973.88;10376736;28;96847;-79
2024/01/12 13:09:53;;;;;;;3.58;2.40;;;;;;;9.44;57.48;100961.88;10376076;28;96911;-79
2024/01/12 13:15:00;;;;;;;5.88;2.90;;;;;;;9.41;57.43;100969.84;10377148;28;96858;-79
2024/01/12 13:20:06;;;;;;;3.47;2.53;;;;;;;9.38;57.21;100948.03;10376036;28;97439;-79
2024/01/12 13:25:11;;;;;;;6.10;3.00;;;;;;;9.61;57.58;100979.84;10375836;28;96871;-80
2024/01/12 13:30:15;;;;;;;5.57;2.90;;;;;;;9.49;57.51;100981.00;10374589;28;96689;-80
2024/01/12 13:35:21;;;;;;;6.10;2.85;;;;;;;9.78;57.51;100965.41;10374769;28;96846;-80
2024/01/12 13:40:27;;;;;;;5.03;2.53;;;;;;;9.74;56.92;100953.25;10375319;28;96721;-80
2024/01/12 13:45:34;;;;;;;3.92;2.45;;;;;;;9.77;58.03;100926.88;10374555;28;96787;-79
2024/01/12 13:50:39;;;;;;;3.63;2.47;;;;;;;9.96;56.62;100916.75;10374892;28;96778;-80
2024/01/12 13:55:43;;;;;;;;;;;;;;;9.92;56.82;100899.31;10374419;28;96674;-79
2024/01/12 14:00:46;;;;;;;4.78;2.58;;;;;;;9.82;56.87;100926.75;10374643;28;97265;-79
2024/01/12 14:05:51;;;;;;;5.32;2.70;;;;;;;9.92;56.47;100915.97;10375040;28;97273;-80
2024/01/12 14:10:56;;;;;;;3.88;2.45;;;;;;;10.03;57.89;100908.66;10374404;28;96966;-80
2024/01/12 14:16:00;;;;;;;5.22;2.97;;;;;;;10.20;57.63;100905.56;10374082;28;97306;-80
2024/01/12 14:21:05;;;;;;;6.13;3.30;;;;;;;10.32;56.87;100896.47;10372277;28;96740;-80
2024/01/12 14:26:09;;;;;;;4.40;2.72;;;;;;;10.55;56.11;100889.66;10373195;28;97393;-80
2024/01/12 14:31:15;;;;;;;4.68;2.72;;;;;;;10.62;56.90;100898.22;10374028;28;96981;-80
2024/01/12 14:36:21;;;;;;;4.60;2.92;;;;;;;10.72;55.97;100895.28;10373347;28;96764;-80
2024/01/12 14:41:24;;;;;;;5.75;2.97;;;;;;;10.69;56.23;100911.16;10372919;28;97041;-80
2024/01/12 14:46:28;;;;;;;4.68;2.70;;;;;;;10.77;55.93;100898.63;10372180;28;96652;-80
2024/01/12 14:51:33;;;;;;;5.45;3.28;;;;;;;10.92;56.20;100881.50;10373101;28;96754;-80
2024/01/12 14:56:37;;;;;;;6.13;2.85;;;;;;;11.36;55.45;100880.97;10373659;28;97248;-80
2024/01/12 15:01:40;;;;;;;4.68;2.65;;;;;;;11.33;54.43;100867.91;10372630;28;96769;-80
2024/01/12 15:06:46;;;;;;;6.28;3.50;;;;;;;10.60;56.06;100882.47;10370864;28;96822;-80
2024/01/12 15:11:51;;;;;;;6.20;3.47;;;;;;;10.64;56.30;100883.25;10371163;28;96670;-80
2024/01/12 15:16:55;;;;;;;6.88;3.42;;;;;;;10.90;55.65;100867.53;10371617;28;96699;-80
2024/01/12 15:22:00;;;;;;;5.00;2.78;;;;;;;10.68;56.83;100866.47;10371916;28;96745;-80
2024/01/12 15:27:07;;;;;;;8.85;4.97;;;;;;;11.42;54.86;100848.28;10371495;28;97198;-80
2024/01/12 15:32:11;;;;;;;5.13;3.15;;;;;;;11.68;54.93;100827.19;10371662;28;96664;-80
2024/01/12 15:37:16;;;;;;;5.88;3.10;;;;;;;11.80;53.82;100810.94;10371227;28;96778;-80
2024/01/12 15:42:19;;;;;;;6.43;3.40;;;;;;;11.89;53.23;100813.25;10371227;28;96815;-80
2024/01/12 15:47:27;;;;;;;5.65;3.13;;;;;;;11.66;54.07;100807.91;10371885;28;97876;-80
2024/01/12 15:52:32;;;;;;;6.05;3.03;;;;;;;11.30;55.05;100807.41;10370980;28;96894;-80
2024/01/12 15:57:36;;;;;;;5.50;3.38;;;;;;;11.47;54.38;100796.28;10370794;28;96622;-79
2024/01/12 16:02:39;;;;;;;5.68;3.60;;;;;;;11.67;54.02;100813.13;10369366;28;96763;-80
2024/01/12 16:07:44;;;;;;;4.82;3.25;;;;;;;11.72;54.09;100823.53;10370746;28;96855;-80
2024/01/12 16:12:47;;;;;;;6.03;3.13;;;;;;;11.64;54.09;100844.00;10370856;28;96692;-80
2024/01/12 16:17:51;;;;;;;5.30;3.10;;;;;;;11.55;53.90;100853.09;10374359;28;96893;-79
2024/01/12 16:22:56;;;;;;;6.05;3.22;;;;;;;11.13;55.48;100855.38;10377796;28;96628;-80
2024/01/12 16:28:00;;;;;;;4.38;2.70;;;;;;;10.67;57.09;100867.34;10377118;28;96727;-80
2024/01/12 16:33:04;;;;;;;7.05;3.30;;;;;;;10.41;57.04;100880.41;10377565;28;96638;-80
2024/01/12 16:38:09;;;;;;;5.00;2.90;;;;;;;10.31;57.48;100869.31;10376977;28;97186;-80
2024/01/12 16:43:12;;;;;;;5.50;3.22;;;;;;;10.20;58.24;100866.13;10376830;28;97158;-80
2024/01/12 16:48:16;;;;;;;6.43;3.45;;;;;;;10.07;58.91;100873.47;10376092;28;96830;-80
2024/01/12 16:53:21;;;;;;;6.25;3.50;;;;;;;9.94;58.92;100858.09;10375201;28;96741;-79
2024/01/12 16:58:25;;;;;;;5.55;3.65;;;;;;;9.86;59.76;100862.69;10376628;28;96636;-79
2024/01/12 17:03:28;;;;;;;6.35;3.35;;;;;;;9.79;60.00;100863.78;10376215;28;97223;-79
2024/01/12 17:08:34;;;;;;;7.53;3.25;;;;;;;9.68;60.43;100840.41;10376115;28;97271;-79
2024/01/12 17:13:38;;;;;;;5.22;3.17;;;;;;;9.59;60.58;100838.00;10375608;28;97213;-80
2024/01/12 17:18:42;;;;;;;5.28;3.35;;;;;;;9.62;60.58;100834.47;10375286;28;96852;-79
2024/01/12 17:23:47;;;;;;;4.40;2.90;;;;;;;9.52;61.31;100841.69;10375860;28;96721;-80
2024/01/12 17:28:51;;;;;;;6.65;3.38;;;;;;;9.54;60.54;100842.53;10378679;28;96669;-80
2024/01/12 17:33:54;;;;;;;5.55;2.88;;;;;;;9.55;60.62;100841.66;10378204;28;96613;-80
2024/01/12 17:39:00;;;;;;;6.03;3.60;;;;;;;9.53;60.61;100874.09;10378599;28;96623;-80
2024/01/12 17:44:04;;;;;;;6.28;3.00;;;;;;;9.56;60.69;100884.50;10377237;28;96855;-80
2024/01/12 17:49:07;;;;;;;6.22;3.17;;;;;;;9.56;61.49;100892.41;10377766;28;96622;-80
2024/01/12 17:54:13;;;;;;;6.95;3.75;;;;;;;9.48;61.32;100882.09;10377585;28;97209;-80
2024/01/12 17:59:16;;;;;;;6.40;3.45;;;;;;;9.50;60.73;100890.78;10378220;28;96881;-79
2024/01/12 18:04:20;;;;;;;5.68;3.15;;;;;;;9.49;62.03;100872.44;10377516;28;97161;-80
2024/01/12 18:09:25;;;;;;;4.88;2.92;;;;;;;9.55;61.22;100852.16;10377130;28;96623;-80
2024/01/12 18:14:29;;;;;;;5.22;2.83;;;;;;;9.57;60.77;100860.81;10377125;28;96989;-79
2024/01/12 18:19:34;;;;;;;6.28;2.97;;;;;;;9.59;61.42;100853.78;10378014;28;96795;-80
2024/01/12 18:24:41;;;;;;;5.93;3.60;;;;;;;9.58;60.79;100854.69;10376557;28;96699;-80
2024/01/12 18:29:45;;;;;;;5.90;3.22;;;;;;;9.59;61.25;100850.31;10372694;28;96699;-79
2024/01/12 18:34:48;;;;;;;5.30;3.25;;;;;;;9.59;60.59;100848.53;10372260;28;96678;-79
2024/01/12 18:39:54;;;;;;;6.45;3.25;;;;;;;9.64;60.27;100840.53;10372452;28;97666;-80
2024/01/12 18:44:57;;;;;;;;;;;;;;;9.64;61.06;100840.53;10372993;28;96844;-80
2024/01/12 18:50:01;;;;;;;5.28;2.65;;;;;;;9.65;61.22;100844.88;10373241;28;97561;-80
2024/01/12 18:55:07;;;;;;;4.90;2.50;;;;;;;9.66;61.13;100847.47;10372498;28;97243;-80
2024/01/12 19:00:12;;;;;;;5.28;2.55;;;;;;;9.71;61.00;100844.72;10372808;28;97536;-79
2024/01/12 19:05:16;;;;;;;4.88;2.90;;;;;;;9.72;61.19;100834.16;10372238;28;97135;-79
2024/01/12 19:10:22;;;;;;;5.85;3.28;;;;;;;9.79;61.02;100855.88;10373007;28;97375;-80
2024/01/12 19:15:26;;;;;;;5.75;3.30;;;;;;;9.80;60.72;100858.47;10383357;22;98327;-80
2024/01/12 19:20:29;;;;;;;4.10;2.55;;;;;;;9.80;61.31;100858.47;10413690;28;96763;-80
2024/01/12 19:25:34;;;;;;;4.78;2.88;;;;;;;9.83;60.39;100858.38;10412652;28;96678;-80
2024/01/12 19:30:38;;;;;;;6.03;3.00;;;;;;;9.84;60.42;100856.63;10410544;28;96919;-80
2024/01/12 19:35:41;;;;;;;6.35;3.40;;;;;;;9.81;60.20;100859.34;10371267;28;96619;-80
2024/01/12 19:40:50;;;;;;;5.10;2.88;;;;;;;9.87;60.66;100851.28;10371771;28;96604;-80
2024/01/12 19:45:53;;;;;;;5.40;2.95;;;;;;;9.87;60.26;100846.88;10370810;28;96754;-80
2024/01/12 19:50:57;;;;;;;5.25;2.63;;;;;;;9.88;60.98;100837.25;10370553;28;96686;-80
2024/01/12 19:56:02;;;;;;;5.18;2.75;;;;;;;9.89;59.93;100826.69;10370821;28;97287;-80
2024/01/12 20:01:09;;;;;;;4.38;2.30;;;;;;;9.82;60.65;100800.59;10371881;28;97188;-80
2024/01/12 20:06:13;;;;;;;4.15;2.70;;;;;;;9.85;60.21;100801.38;10370499;28;96719;-79
2024/01/12 20:11:18;;;;;;;3.75;2.20;;;;;;;9.83;60.94;100797.94;10370653;28;96793;-80
2024/01/12 20:16:22;;;;;;;3.15;2.05;;;;;;;9.81;60.43;100827.81;10369276;28;96649;-80
2024/01/12 20:21:27;;;;;;;5.13;2.60;;;;;;;9.79;60.43;100838.38;10369907;28;96726;-80
2024/01/12 20:26:32;;;;;;;4.45;2.63;;;;;;;9.73;61.03;100858.66;10370203;28;96639;-80
2024/01/12 20:31:36;;;;;;;4.07;2.60;;;;;;;9.71;60.20;100827.16;10370161;28;96681;-80
2024/01/12 20:36:40;;;;;;;5.10;2.47;;;;;;;9.73;60.65;100812.22;10369993;28;96978;-79
2024/01/12 20:41:45;;;;;;;5.68;2.13;;;;;;;9.75;60.54;100794.66;10369865;28;96919;-79
2024/01/12 20:46:48;;;;;;;5.53;2.42;;;;;;;9.81;60.28;100814.66;10369665;28;97260;-80
2024/01/12 20:51:52;;;;;;;5.63;2.58;;;;;;;9.83;61.03;100820.75;10370654;28;97491;-80
2024/01/12 20:56:57;;;;;;;3.78;2.33;;;;;;;9.81;60.11;100823.38;10368843;28;96834;-80
2024/01/12 21:02:01;;;;;;;5.03;2.40;;;;;;;9.85;60.52;100826.78;10370658;28;96879;-80
2024/01/12 21:07:05;;;;;;;4.00;2.10;;;;;;;9.83;60.62;100852.28;10374875;28;96776;-80
2024/01/12 21:12:11;;;;;;;3.58;2.20;;;;;;;9.81;60.88;100833.06;10376934;28;96935;-79
2024/01/12 21:17:15;;;;;;;2.92;2.03;;;;;;;9.76;60.75;100825.28;10375460;28;96806;-80
2024/01/12 21:22:19;;;;;;;4.15;2.22;;;;;;;9.77;61.56;100844.53;10375942;28;96554;-80
2024/01/12 21:27:36;;;;;;;3.47;2.28;;;;;;;9.85;60.59;100846.06;10376349;28;96861;-80
2024/01/12 21:32:40;;;;;;;3.60;2.50;;;;;;;9.80;60.15;100824.31;10375305;28;96726;-80
2024/01/12 21:37:44;;;;;;;3.22;1.98;;;;;;;9.82;60.80;100837.41;10375364;28;96678;-80
2024/01/12 21:42:49;;;;;;;4.05;2.15;;;;;;;9.79;60.76;100816.47;10375734;28;96850;-79
2024/01/12 21:47:53;;;;;;;3.97;2.47;;;;;;;9.80;60.87;100826.94;10374553;28;97356;-80
2024/01/12 21:52:56;;;;;;;3.50;2.05;;;;;;;9.79;61.27;100813.84;10374874;28;97075;-79
2024/01/12 21:58:04;;;;;;;3.25;1.95;;;;;;;9.81;61.43;100801.53;10373834;28;96913;-79
2024/01/12 22:03:08;;;;;;;3.60;2.20;;;;;;;9.81;61.68;100807.63;10374517;28;97217;-79
2024/01/12 22:08:12;;;;;;;3.25;1.92;;;;;;;9.84;60.94;100798.78;10374395;28;97313;-79
2024/01/12 22:13:17;;;;;;;4.95;2.45;;;;;;;9.75;61.03;100802.53;10373535;28;97488;-80
2024/01/12 22:18:20;;;;;;;4.40;2.45;;;;;;;9.70;60.88;100814.94;10373616;28;96684;-79
2024/01/12 22:23:24;;;;;;;5.38;2.28;;;;;;;9.68;61.33;100816.75;10373900;28;96682;-80
2024/01/12 22:28:29;;;;;;;2.83;1.98;;;;;;;9.79;61.07;100841.00;10373608;28;97024;-79
2024/01/12 22:33:32;;;;;;;3.85;1.98;;;;;;;9.73;61.72;100804.34;10374393;28;96790;-80
2024/01/12 22:38:36;;;;;;;5.07;2.58;;;;;;;9.74;61.00;100799.97;10372655;28;96709;-80
2024/01/12 22:43:41;;;;;;;3.88;2.17;;;;;;;9.71;60.97;100798.25;10373002;28;96604;-80
2024/01/12 22:48:45;;;;;;;4.15;2.17;;;;;;;9.74;61.31;100799.97;10371781;28;96807;-80
2024/01/12 22:53:49;;;;;;;3.95;2.38;;;;;;;9.63;61.92;100797.63;10372969;28;96647;-80
2024/01/12 22:58:54;;;;;;;4.82;2.60;;;;;;;9.58;62.32;100801.28;10372606;28;97224;-80
2024/01/12 23:03:58;;;;;;;3.30;2.20;;;;;;;9.57;61.82;100786.44;10372278;28;96829;-79
2024/01/12 23:09:02;;;;;;;6.90;2.38;;;;;;;9.56;61.84;100785.56;10372637;28;97063;-80
2024/01/12 23:14:07;;;;;;;3.72;2.10;;;;;;;9.57;61.69;100773.28;10371948;28;96741;-79
2024/01/12 23:19:10;;;;;;;4.13;2.25;;;;;;;9.56;61.87;100775.03;10371474;28;96727;-80
2024/01/12 23:24:14;;;;;;;4.30;2.13;;;;;;;9.51;62.50;100755.06;10372645;28;96646;-79
2024/01/12 23:29:19;;;;;;;3.85;2.30;;;;;;;9.48;62.07;100757.78;10370867;28;96787;-79
2024/01/12 23:34:22;;;;;;;3.90;1.85;;;;;;;9.58;62.22;100759.22;10372056;28;96884;-80
2024/01/12 23:39:27;;;;;;;3.70;2.17;;;;;;;9.51;62.46;100757.69;10370208;28;97170;-80